Terminal Aerodrome Forecast
Issued by NWS

Home | Current Version | Previous Version | Text Only | Print | Product List | Glossary On
Versions: 1 2 3 4 5 6 7 8 9 10 11 12 13 14 15 16 17 18 19
000
FTUS42 KFFC 211120
TAFFTY
TAF
KFTY 211120Z 2112/2212 VRB03KT P6SM SCT025 BKN040
      TEMPO 2112/2114 BKN025
     FM211700 VRB03KT P6SM SCT025 BKN045
     FM220000 00000KT P6SM SCT009 OVC015
     FM220300 00000KT 3SM BR BKN008 OVC015=

USA.gov is the U.S. government's official web portal to all federal, state and local government web resources and services.